Home Previsioni Grafici Avvisi Live Satellite Webcam Min e Max Mappe Metar Effemeridi Terremoti Info

Report METAR

 

LIEB - Cape Bellavista, Italy
Distance from station: SE 54km
Dati ricevuti: 19/10/2017 17:55
Parz. nuvoloso
Parz. nuvoloso
 Vento da E
Vento: E 6 km/h
Temperatura: 23°C
P.to Rugiada: 20°C
Umidità: 83%
Barometro: 1014 hPa
Nuvole: Parz. nuvoloso
Visibility: 10 km
Cloud details: Parz. nuvoloso 914 m
Parz. nuvoloso 1067 m
2017/10/19 15:55 LIEB 191555Z 08003KT 9999 SCT030 SCT035TCU 23/20 Q1014 RMK BKN QUK 2 QUL 0 VIS MAR 20 KM MON W CIME INC NC VIS MIN 9999
LIEO - Olbia/Costa Smer, Italy
Distance from station: NNE 70km
Dati ricevuti: 19/10/2017 18:20
Parz. nuvoloso
Parz. nuvoloso
 Vento da E
Vento: E 20 km/h
Temperatura: 22°C
P.to Rugiada: 17°C
Umidità: 73%
Barometro: 1014 hPa
Nuvole: Parz. nuvoloso
Visibility: 10 km
Cloud details: Few Clouds 457 m
Parz. nuvoloso 1219 m
2017/10/19 16:20 LIEO 191620Z 10011KT 070V130 9999 FEW015 SCT040 22/17 Q1014
 
LIEA - Alghero, Italy
Distance from station: ONO 94km
Dati ricevuti: 19/10/2017 18:20
Few Clouds
Few Clouds
 Vento da SO
Vento: SO 6 km/h
Temperatura: 25°C
P.to Rugiada: 14°C
Umidità: 51%
Barometro: 1012 hPa
Nuvole: Few Clouds
Visibility: 10 km
Cloud details: Few Clouds 1067 m
2017/10/19 16:20 LIEA 191620Z 22003KT 190V260 9999 FEW035 25/14 Q1012
LIED - Decimomannu(It-A, Italy
Distance from station: SSO 107km
Dati ricevuti: 19/10/2017 17:55
Few Clouds
Few Clouds
 Vento da SSE
Vento: SSE 22 km/h
Temperatura: 23°C
P.to Rugiada: 16°C
Umidità: 65%
Barometro: 1012 hPa
Nuvole: Few Clouds
Visibility: 10 km
Cloud details: Few Clouds 549 m
2017/10/19 15:55 LIED 191555Z 15012KT 9999 FEW018 23/16 Q1012 RMK BKN SCT200 VIS MIN 9999 WIND THR35 16014KT WIND THR17 /////KT BLU
 
LIEE - Cagliari/Elmas(A, Italy
Distance from station: S 116km
Dati ricevuti: 19/10/2017 18:20
Sereno
Sereno
 Vento da SSE
Vento: SSE 17 km/h
Temperatura: 23°C
P.to Rugiada: 18°C
Umidità: 74%
Barometro: 1013 hPa
Summary: Sereno
Visibility: superiore a 10 km
2017/10/19 16:20 LIEE 191620Z 15009KT CAVOK 23/18 Q1013
LIEC - Cape Carbonara, Italy
Distance from station: S 133km
Dati ricevuti: 19/10/2017 17:55
Parz. nuvoloso
Parz. nuvoloso
 Vento da ESE
Vento: ESE 22 km/h
Temperatura: 22°C
P.to Rugiada: 17°C
Umidità: 73%
Barometro: 1014 hPa
Nuvole: Parz. nuvoloso
Visibility: 10 km
Cloud details: Parz. nuvoloso 457 m
2017/10/19 15:55 LIEC 191555Z 11012KT 9999 SCT015 22/17 Q1014 RMK SCT QUK 2 QUL 0 VIS MAR 14 KM VIS MIN 9999
 
LFKF - Figari (aut), France
Distance from station: N 137km
Dati ricevuti: 19/10/2017 18:00
Molto nuvoloso
Molto nuvoloso
 Vento da NE
Vento: NE 22 km/h
Temperatura: 21°C
P.to Rugiada: 17°C
Umidità: 78%
Barometro: 1015 hPa
Nuvole: Molto nuvoloso
Visibility: 10 km
Cloud details: Few Clouds 762 m
Parz. nuvoloso 1189 m
Molto nuvoloso 6401 m
2017/10/19 16:00 LFKF 191600Z AUTO 05012KT 020V080 9999 FEW025 SCT039 BKN210 21/17 Q1015 BECMG BKN014
LFKS - Solenzara (fafb), France
Distance from station: N 182km
Dati ricevuti: 19/10/2017 18:00
Sereno
Sereno
 Vento da SE
Vento: SE 19 km/h
Temperatura: 21°C
P.to Rugiada: 17°C
Umidità: 78%
Barometro: 1015 hPa
Summary: Sereno
Visibility: superiore a 10 km
2017/10/19 16:00 LFKS 191600Z AUTO 13010KT CAVOK 21/17 Q1015